sensor_id;sensor_type;location;lat;lon;timestamp;P1;durP1;ratioP1;P2;durP2;ratioP2
8260;SDS011;64115;50.170;8.242;2023-03-31T00:00:17;5.03;;;1.50;;
8260;SDS011;64115;50.170;8.242;2023-03-31T00:02:44;4.07;;;1.60;;
8260;SDS011;64115;50.170;8.242;2023-03-31T00:05:12;3.43;;;1.60;;
8260;SDS011;64115;50.170;8.242;2023-03-31T00:07:42;6.20;;;1.80;;
8260;SDS011;64115;50.170;8.242;2023-03-31T00:10:10;4.60;;;1.60;;
8260;SDS011;64115;50.170;8.242;2023-03-31T00:12:37;5.90;;;1.80;;
8260;SDS011;64115;50.170;8.242;2023-03-31T00:15:04;4.17;;;1.60;;
8260;SDS011;64115;50.170;8.242;2023-03-31T00:17:33;4.93;;;1.70;;
8260;SDS011;64115;50.170;8.242;2023-03-31T00:20:00;7.03;;;1.80;;
8260;SDS011;64115;50.170;8.242;2023-03-31T00:22:30;5.03;;;1.80;;
8260;SDS011;64115;50.170;8.242;2023-03-31T00:24:57;7.70;;;2.20;;
8260;SDS011;64115;50.170;8.242;2023-03-31T00:27:24;5.77;;;1.87;;
8260;SDS011;64115;50.170;8.242;2023-03-31T00:29:52;5.90;;;2.30;;
8260;SDS011;64115;50.170;8.242;2023-03-31T00:32:19;6.43;;;2.00;;
8260;SDS011;64115;50.170;8.242;2023-03-31T00:34:48;4.93;;;1.73;;
8260;SDS011;64115;50.170;8.242;2023-03-31T00:37:15;5.83;;;1.90;;
8260;SDS011;64115;50.170;8.242;2023-03-31T00:39:42;6.97;;;1.87;;
8260;SDS011;64115;50.170;8.242;2023-03-31T00:42:10;6.20;;;1.80;;
8260;SDS011;64115;50.170;8.242;2023-03-31T00:44:38;6.77;;;2.00;;
8260;SDS011;64115;50.170;8.242;2023-03-31T00:47:47;5.20;;;2.17;;
8260;SDS011;64115;50.170;8.242;2023-03-31T00:50:20;5.63;;;2.03;;
8260;SDS011;64115;50.170;8.242;2023-03-31T00:52:50;8.57;;;2.37;;
8260;SDS011;64115;50.170;8.242;2023-03-31T00:55:22;8.37;;;2.40;;
8260;SDS011;64115;50.170;8.242;2023-03-31T00:57:52;7.13;;;2.80;;
8260;SDS011;64115;50.170;8.242;2023-03-31T01:00:20;8.10;;;2.67;;
8260;SDS011;64115;50.170;8.242;2023-03-31T01:02:48;5.83;;;2.40;;
8260;SDS011;64115;50.170;8.242;2023-03-31T01:05:22;7.53;;;2.43;;
8260;SDS011;64115;50.170;8.242;2023-03-31T01:07:52;6.00;;;2.40;;
8260;SDS011;64115;50.170;8.242;2023-03-31T01:10:21;4.67;;;2.27;;
8260;SDS011;64115;50.170;8.242;2023-03-31T01:12:49;6.57;;;2.60;;
8260;SDS011;64115;50.170;8.242;2023-03-31T01:15:19;6.87;;;2.40;;
8260;SDS011;64115;50.170;8.242;2023-03-31T01:17:47;5.87;;;2.23;;
8260;SDS011;64115;50.170;8.242;2023-03-31T01:20:17;6.10;;;2.00;;
8260;SDS011;64115;50.170;8.242;2023-03-31T01:29:03;8.07;;;2.20;;
8260;SDS011;64115;50.170;8.242;2023-03-31T01:31:48;8.53;;;2.23;;
8260;SDS011;64115;50.170;8.242;2023-03-31T01:41:10;7.60;;;2.20;;
8260;SDS011;64115;50.170;8.242;2023-03-31T01:43:50;9.50;;;2.37;;
8260;SDS011;64115;50.170;8.242;2023-03-31T01:46:26;8.33;;;2.20;;
8260;SDS011;64115;50.170;8.242;2023-03-31T01:48:58;6.30;;;1.93;;
8260;SDS011;64115;50.170;8.242;2023-03-31T01:51:34;10.17;;;1.87;;
8260;SDS011;64115;50.170;8.242;2023-03-31T01:54:10;4.93;;;2.10;;
8260;SDS011;64115;50.170;8.242;2023-03-31T01:56:45;5.37;;;1.90;;
8260;SDS011;64115;50.170;8.242;2023-03-31T01:59:14;8.40;;;2.20;;
8260;SDS011;64115;50.170;8.242;2023-03-31T02:01:46;8.90;;;2.23;;
8260;SDS011;64115;50.170;8.242;2023-03-31T02:04:17;7.87;;;1.90;;
8260;SDS011;64115;50.170;8.242;2023-03-31T02:06:49;8.37;;;2.07;;
8260;SDS011;64115;50.170;8.242;2023-03-31T02:09:21;10.03;;;2.30;;
8260;SDS011;64115;50.170;8.242;2023-03-31T02:11:52;7.20;;;1.90;;
8260;SDS011;64115;50.170;8.242;2023-03-31T02:14:21;6.67;;;2.57;;
8260;SDS011;64115;50.170;8.242;2023-03-31T02:16:54;5.33;;;1.93;;
8260;SDS011;64115;50.170;8.242;2023-03-31T02:19:27;8.00;;;2.60;;
8260;SDS011;64115;50.170;8.242;2023-03-31T02:21:57;8.20;;;2.60;;
8260;SDS011;64115;50.170;8.242;2023-03-31T02:24:25;9.60;;;2.73;;
8260;SDS011;64115;50.170;8.242;2023-03-31T02:26:58;8.20;;;2.10;;
8260;SDS011;64115;50.170;8.242;2023-03-31T02:29:31;7.43;;;2.50;;
8260;SDS011;64115;50.170;8.242;2023-03-31T02:32:00;11.47;;;2.33;;
8260;SDS011;64115;50.170;8.242;2023-03-31T02:34:32;7.23;;;2.30;;
8260;SDS011;64115;50.170;8.242;2023-03-31T02:36:59;4.30;;;1.83;;
8260;SDS011;64115;50.170;8.242;2023-03-31T02:39:28;9.47;;;2.17;;
8260;SDS011;64115;50.170;8.242;2023-03-31T02:42:00;7.70;;;2.40;;
8260;SDS011;64115;50.170;8.242;2023-03-31T02:44:31;9.83;;;2.43;;
8260;SDS011;64115;50.170;8.242;2023-03-31T02:46:58;7.03;;;1.90;;
8260;SDS011;64115;50.170;8.242;2023-03-31T02:49:26;9.43;;;2.37;;
8260;SDS011;64115;50.170;8.242;2023-03-31T02:57:55;8.07;;;2.20;;
8260;SDS011;64115;50.170;8.242;2023-03-31T03:00:39;7.10;;;2.07;;
8260;SDS011;64115;50.170;8.242;2023-03-31T03:03:21;7.80;;;2.50;;
8260;SDS011;64115;50.170;8.242;2023-03-31T03:06:03;5.60;;;2.10;;
8260;SDS011;64115;50.170;8.242;2023-03-31T03:08:40;5.27;;;2.23;;
8260;SDS011;64115;50.170;8.242;2023-03-31T03:11:19;6.83;;;2.30;;
8260;SDS011;64115;50.170;8.242;2023-03-31T03:13:54;3.80;;;1.70;;
8260;SDS011;64115;50.170;8.242;2023-03-31T03:16:31;7.33;;;2.40;;
8260;SDS011;64115;50.170;8.242;2023-03-31T03:19:04;7.60;;;2.27;;
8260;SDS011;64115;50.170;8.242;2023-03-31T03:21:32;6.87;;;2.17;;
8260;SDS011;64115;50.170;8.242;2023-03-31T03:24:00;9.10;;;2.60;;
8260;SDS011;64115;50.170;8.242;2023-03-31T03:26:27;7.33;;;2.47;;
8260;SDS011;64115;50.170;8.242;2023-03-31T03:28:56;7.37;;;2.73;;
8260;SDS011;64115;50.170;8.242;2023-03-31T03:31:23;11.03;;;3.30;;
8260;SDS011;64115;50.170;8.242;2023-03-31T03:33:51;4.40;;;2.67;;
8260;SDS011;64115;50.170;8.242;2023-03-31T03:36:18;5.00;;;2.53;;
8260;SDS011;64115;50.170;8.242;2023-03-31T03:38:47;9.83;;;2.90;;
8260;SDS011;64115;50.170;8.242;2023-03-31T03:41:14;7.30;;;2.90;;
8260;SDS011;64115;50.170;8.242;2023-03-31T03:43:42;6.00;;;2.53;;
8260;SDS011;64115;50.170;8.242;2023-03-31T03:46:10;7.93;;;3.17;;
8260;SDS011;64115;50.170;8.242;2023-03-31T03:48:37;5.80;;;2.87;;
8260;SDS011;64115;50.170;8.242;2023-03-31T03:51:04;8.03;;;3.10;;
8260;SDS011;64115;50.170;8.242;2023-03-31T03:53:32;7.80;;;3.50;;
8260;SDS011;64115;50.170;8.242;2023-03-31T03:55:59;6.03;;;3.63;;
8260;SDS011;64115;50.170;8.242;2023-03-31T03:58:26;6.63;;;4.00;;
8260;SDS011;64115;50.170;8.242;2023-03-31T04:00:54;7.13;;;3.50;;
8260;SDS011;64115;50.170;8.242;2023-03-31T04:03:22;7.07;;;3.33;;
8260;SDS011;64115;50.170;8.242;2023-03-31T04:05:50;7.20;;;3.00;;
8260;SDS011;64115;50.170;8.242;2023-03-31T04:08:17;6.50;;;3.20;;
8260;SDS011;64115;50.170;8.242;2023-03-31T04:10:44;9.13;;;2.93;;
8260;SDS011;64115;50.170;8.242;2023-03-31T04:13:13;7.60;;;2.87;;
8260;SDS011;64115;50.170;8.242;2023-03-31T04:15:40;4.27;;;2.57;;
8260;SDS011;64115;50.170;8.242;2023-03-31T04:18:08;4.73;;;2.50;;
8260;SDS011;64115;50.170;8.242;2023-03-31T04:20:48;8.10;;;2.50;;
8260;SDS011;64115;50.170;8.242;2023-03-31T04:23:19;4.70;;;2.33;;
8260;SDS011;64115;50.170;8.242;2023-03-31T04:25:50;6.83;;;2.13;;
8260;SDS011;64115;50.170;8.242;2023-03-31T04:28:17;3.03;;;1.90;;
8260;SDS011;64115;50.170;8.242;2023-03-31T04:30:44;10.53;;;2.17;;
8260;SDS011;64115;50.170;8.242;2023-03-31T04:33:13;7.73;;;2.00;;
8260;SDS011;64115;50.170;8.242;2023-03-31T04:35:41;5.20;;;1.80;;
8260;SDS011;64115;50.170;8.242;2023-03-31T04:38:15;6.67;;;2.10;;
8260;SDS011;64115;50.170;8.242;2023-03-31T04:40:44;4.13;;;1.80;;
8260;SDS011;64115;50.170;8.242;2023-03-31T04:43:12;9.97;;;2.20;;
8260;SDS011;64115;50.170;8.242;2023-03-31T04:45:39;5.20;;;1.73;;
8260;SDS011;64115;50.170;8.242;2023-03-31T04:48:07;8.33;;;1.97;;
8260;SDS011;64115;50.170;8.242;2023-03-31T04:50:35;6.20;;;1.80;;
8260;SDS011;64115;50.170;8.242;2023-03-31T04:53:02;4.70;;;1.93;;
8260;SDS011;64115;50.170;8.242;2023-03-31T04:55:32;8.57;;;2.10;;
8260;SDS011;64115;50.170;8.242;2023-03-31T04:58:00;7.50;;;2.27;;
8260;SDS011;64115;50.170;8.242;2023-03-31T05:00:27;5.90;;;2.33;;
8260;SDS011;64115;50.170;8.242;2023-03-31T05:02:54;4.33;;;1.93;;
8260;SDS011;64115;50.170;8.242;2023-03-31T05:05:21;8.83;;;2.57;;
8260;SDS011;64115;50.170;8.242;2023-03-31T05:07:48;4.03;;;2.10;;
8260;SDS011;64115;50.170;8.242;2023-03-31T05:10:15;7.33;;;2.90;;
8260;SDS011;64115;50.170;8.242;2023-03-31T05:12:44;4.47;;;2.03;;
8260;SDS011;64115;50.170;8.242;2023-03-31T05:15:11;5.50;;;2.10;;
8260;SDS011;64115;50.170;8.242;2023-03-31T05:17:38;7.43;;;2.33;;
8260;SDS011;64115;50.170;8.242;2023-03-31T05:20:06;5.17;;;2.20;;
8260;SDS011;64115;50.170;8.242;2023-03-31T05:22:34;6.60;;;2.10;;
8260;SDS011;64115;50.170;8.242;2023-03-31T05:25:02;5.70;;;2.63;;
8260;SDS011;64115;50.170;8.242;2023-03-31T05:27:31;6.10;;;3.00;;
8260;SDS011;64115;50.170;8.242;2023-03-31T05:30:00;7.07;;;3.10;;
8260;SDS011;64115;50.170;8.242;2023-03-31T05:32:27;4.90;;;3.07;;
8260;SDS011;64115;50.170;8.242;2023-03-31T05:34:55;5.73;;;3.60;;
8260;SDS011;64115;50.170;8.242;2023-03-31T05:37:22;9.83;;;3.50;;
8260;SDS011;64115;50.170;8.242;2023-03-31T05:39:50;3.87;;;2.80;;
8260;SDS011;64115;50.170;8.242;2023-03-31T05:42:18;4.33;;;3.23;;
8260;SDS011;64115;50.170;8.242;2023-03-31T05:44:45;5.57;;;2.93;;
8260;SDS011;64115;50.170;8.242;2023-03-31T05:47:14;5.17;;;3.10;;
8260;SDS011;64115;50.170;8.242;2023-03-31T05:49:42;5.10;;;2.90;;
8260;SDS011;64115;50.170;8.242;2023-03-31T05:52:10;3.70;;;3.07;;
8260;SDS011;64115;50.170;8.242;2023-03-31T05:54:38;4.90;;;2.50;;
8260;SDS011;64115;50.170;8.242;2023-03-31T05:57:07;3.30;;;2.10;;
8260;SDS011;64115;50.170;8.242;2023-03-31T05:59:34;3.53;;;2.37;;
8260;SDS011;64115;50.170;8.242;2023-03-31T06:02:02;3.83;;;2.40;;
8260;SDS011;64115;50.170;8.242;2023-03-31T06:04:31;4.40;;;2.10;;
8260;SDS011;64115;50.170;8.242;2023-03-31T06:06:58;4.47;;;2.50;;
8260;SDS011;64115;50.170;8.242;2023-03-31T06:09:26;3.07;;;2.67;;
8260;SDS011;64115;50.170;8.242;2023-03-31T06:11:53;4.07;;;2.57;;
8260;SDS011;64115;50.170;8.242;2023-03-31T06:14:20;3.77;;;2.53;;
8260;SDS011;64115;50.170;8.242;2023-03-31T06:16:47;5.70;;;3.20;;
8260;SDS011;64115;50.170;8.242;2023-03-31T06:19:16;6.27;;;2.97;;
8260;SDS011;64115;50.170;8.242;2023-03-31T06:21:44;5.40;;;2.97;;
8260;SDS011;64115;50.170;8.242;2023-03-31T06:24:11;4.97;;;2.70;;
8260;SDS011;64115;50.170;8.242;2023-03-31T06:26:39;3.40;;;3.00;;
8260;SDS011;64115;50.170;8.242;2023-03-31T06:29:07;4.03;;;3.30;;
8260;SDS011;64115;50.170;8.242;2023-03-31T06:31:37;4.27;;;3.87;;
8260;SDS011;64115;50.170;8.242;2023-03-31T06:34:04;7.23;;;3.97;;
8260;SDS011;64115;50.170;8.242;2023-03-31T06:36:31;6.73;;;4.23;;
8260;SDS011;64115;50.170;8.242;2023-03-31T06:39:00;6.67;;;4.67;;
8260;SDS011;64115;50.170;8.242;2023-03-31T06:41:28;41.50;;;5.23;;
8260;SDS011;64115;50.170;8.242;2023-03-31T06:43:55;19.33;;;4.53;;
8260;SDS011;64115;50.170;8.242;2023-03-31T06:46:22;6.93;;;3.20;;
8260;SDS011;64115;50.170;8.242;2023-03-31T06:48:50;8.10;;;2.87;;
8260;SDS011;64115;50.170;8.242;2023-03-31T06:51:18;3.30;;;2.80;;
8260;SDS011;64115;50.170;8.242;2023-03-31T06:53:45;3.00;;;2.37;;
8260;SDS011;64115;50.170;8.242;2023-03-31T06:56:14;4.33;;;2.10;;
8260;SDS011;64115;50.170;8.242;2023-03-31T06:58:41;4.40;;;2.10;;
8260;SDS011;64115;50.170;8.242;2023-03-31T07:01:08;3.93;;;2.47;;
8260;SDS011;64115;50.170;8.242;2023-03-31T07:03:36;2.40;;;2.20;;
8260;SDS011;64115;50.170;8.242;2023-03-31T07:06:03;4.53;;;3.50;;
8260;SDS011;64115;50.170;8.242;2023-03-31T07:08:30;8.40;;;3.57;;
8260;SDS011;64115;50.170;8.242;2023-03-31T07:10:59;3.30;;;3.00;;
8260;SDS011;64115;50.170;8.242;2023-03-31T07:13:28;2.93;;;2.40;;
8260;SDS011;64115;50.170;8.242;2023-03-31T07:15:55;2.93;;;2.10;;
8260;SDS011;64115;50.170;8.242;2023-03-31T07:18:22;1.80;;;1.57;;
8260;SDS011;64115;50.170;8.242;2023-03-31T07:20:56;1.37;;;1.27;;
8260;SDS011;64115;50.170;8.242;2023-03-31T07:23:24;1.73;;;1.50;;
8260;SDS011;64115;50.170;8.242;2023-03-31T07:25:52;1.90;;;1.30;;
8260;SDS011;64115;50.170;8.242;2023-03-31T07:28:19;1.50;;;1.40;;
8260;SDS011;64115;50.170;8.242;2023-03-31T07:30:47;2.03;;;1.20;;
8260;SDS011;64115;50.170;8.242;2023-03-31T07:33:15;1.00;;;1.00;;
8260;SDS011;64115;50.170;8.242;2023-03-31T07:35:42;1.30;;;0.77;;
8260;SDS011;64115;50.170;8.242;2023-03-31T07:38:09;1.73;;;0.90;;
8260;SDS011;64115;50.170;8.242;2023-03-31T07:40:39;1.40;;;0.80;;
8260;SDS011;64115;50.170;8.242;2023-03-31T07:43:07;0.80;;;0.40;;
8260;SDS011;64115;50.170;8.242;2023-03-31T07:45:34;0.40;;;0.40;;
8260;SDS011;64115;50.170;8.242;2023-03-31T07:48:06;0.80;;;0.47;;
8260;SDS011;64115;50.170;8.242;2023-03-31T07:50:33;0.97;;;0.30;;
8260;SDS011;64115;50.170;8.242;2023-03-31T07:53:01;0.47;;;0.30;;
8260;SDS011;64115;50.170;8.242;2023-03-31T07:55:28;0.67;;;0.50;;
8260;SDS011;64115;50.170;8.242;2023-03-31T07:57:55;0.43;;;0.43;;
8260;SDS011;64115;50.170;8.242;2023-03-31T08:00:22;0.63;;;0.50;;
8260;SDS011;64115;50.170;8.242;2023-03-31T08:02:49;0.30;;;0.30;;
8260;SDS011;64115;50.170;8.242;2023-03-31T08:05:18;0.23;;;0.20;;
8260;SDS011;64115;50.170;8.242;2023-03-31T08:07:48;0.60;;;0.60;;
8260;SDS011;64115;50.170;8.242;2023-03-31T08:10:18;0.50;;;0.40;;
8260;SDS011;64115;50.170;8.242;2023-03-31T08:12:47;0.50;;;0.40;;
8260;SDS011;64115;50.170;8.242;2023-03-31T08:15:14;0.50;;;0.50;;
8260;SDS011;64115;50.170;8.242;2023-03-31T08:17:41;0.43;;;0.20;;
8260;SDS011;64115;50.170;8.242;2023-03-31T08:20:09;0.67;;;0.40;;
8260;SDS011;64115;50.170;8.242;2023-03-31T08:22:38;0.57;;;0.50;;
8260;SDS011;64115;50.170;8.242;2023-03-31T08:25:06;0.50;;;0.50;;
8260;SDS011;64115;50.170;8.242;2023-03-31T08:27:34;0.70;;;0.70;;
8260;SDS011;64115;50.170;8.242;2023-03-31T08:30:04;0.90;;;0.57;;
8260;SDS011;64115;50.170;8.242;2023-03-31T08:32:32;1.70;;;0.67;;
8260;SDS011;64115;50.170;8.242;2023-03-31T08:35:00;1.23;;;0.70;;
8260;SDS011;64115;50.170;8.242;2023-03-31T08:37:27;1.87;;;1.00;;
8260;SDS011;64115;50.170;8.242;2023-03-31T08:39:57;2.60;;;1.00;;
8260;SDS011;64115;50.170;8.242;2023-03-31T08:42:26;2.53;;;1.00;;
8260;SDS011;64115;50.170;8.242;2023-03-31T08:45:02;4.30;;;1.20;;
8260;SDS011;64115;50.170;8.242;2023-03-31T08:47:33;1.80;;;1.20;;
8260;SDS011;64115;50.170;8.242;2023-03-31T08:50:04;2.33;;;1.37;;
8260;SDS011;64115;50.170;8.242;2023-03-31T08:52:37;2.97;;;1.67;;
8260;SDS011;64115;50.170;8.242;2023-03-31T08:55:11;3.80;;;1.50;;
8260;SDS011;64115;50.170;8.242;2023-03-31T08:57:49;3.30;;;1.60;;
8260;SDS011;64115;50.170;8.242;2023-03-31T09:00:23;3.73;;;1.73;;
8260;SDS011;64115;50.170;8.242;2023-03-31T09:02:52;3.20;;;1.70;;
8260;SDS011;64115;50.170;8.242;2023-03-31T09:05:36;2.17;;;1.73;;
8260;SDS011;64115;50.170;8.242;2023-03-31T09:08:12;4.53;;;1.90;;
8260;SDS011;64115;50.170;8.242;2023-03-31T09:10:49;4.33;;;1.60;;
8260;SDS011;64115;50.170;8.242;2023-03-31T09:13:32;3.70;;;1.70;;
8260;SDS011;64115;50.170;8.242;2023-03-31T09:16:20;5.03;;;1.60;;
8260;SDS011;64115;50.170;8.242;2023-03-31T09:18:51;2.67;;;1.60;;
8260;SDS011;64115;50.170;8.242;2023-03-31T09:21:21;2.60;;;1.40;;
8260;SDS011;64115;50.170;8.242;2023-03-31T09:23:52;2.20;;;1.70;;
8260;SDS011;64115;50.170;8.242;2023-03-31T09:26:29;2.33;;;1.57;;
8260;SDS011;64115;50.170;8.242;2023-03-31T09:29:01;2.90;;;1.67;;
8260;SDS011;64115;50.170;8.242;2023-03-31T09:31:43;5.27;;;1.67;;
8260;SDS011;64115;50.170;8.242;2023-03-31T09:34:12;5.83;;;2.00;;
8260;SDS011;64115;50.170;8.242;2023-03-31T09:36:41;7.30;;;1.80;;
8260;SDS011;64115;50.170;8.242;2023-03-31T09:39:12;4.83;;;1.77;;
8260;SDS011;64115;50.170;8.242;2023-03-31T09:41:42;5.10;;;1.70;;
8260;SDS011;64115;50.170;8.242;2023-03-31T09:44:15;2.53;;;1.80;;
8260;SDS011;64115;50.170;8.242;2023-03-31T09:47:00;3.43;;;1.67;;
8260;SDS011;64115;50.170;8.242;2023-03-31T09:49:31;4.27;;;2.07;;
8260;SDS011;64115;50.170;8.242;2023-03-31T09:52:02;3.17;;;2.10;;
8260;SDS011;64115;50.170;8.242;2023-03-31T09:54:36;4.67;;;2.00;;
8260;SDS011;64115;50.170;8.242;2023-03-31T09:57:14;5.57;;;2.13;;
8260;SDS011;64115;50.170;8.242;2023-03-31T09:59:49;3.73;;;2.10;;
8260;SDS011;64115;50.170;8.242;2023-03-31T10:02:23;4.97;;;2.10;;
8260;SDS011;64115;50.170;8.242;2023-03-31T10:04:59;5.27;;;1.90;;
8260;SDS011;64115;50.170;8.242;2023-03-31T10:07:32;4.23;;;2.10;;
8260;SDS011;64115;50.170;8.242;2023-03-31T10:10:00;2.70;;;1.90;;
8260;SDS011;64115;50.170;8.242;2023-03-31T10:12:36;4.70;;;1.20;;
8260;SDS011;64115;50.170;8.242;2023-03-31T10:15:18;2.23;;;1.20;;
8260;SDS011;64115;50.170;8.242;2023-03-31T10:17:46;2.40;;;1.20;;
8260;SDS011;64115;50.170;8.242;2023-03-31T10:20:19;2.33;;;1.00;;
8260;SDS011;64115;50.170;8.242;2023-03-31T10:22:58;1.83;;;0.90;;
8260;SDS011;64115;50.170;8.242;2023-03-31T10:25:30;3.07;;;1.10;;
8260;SDS011;64115;50.170;8.242;2023-03-31T10:28:02;2.93;;;1.30;;
8260;SDS011;64115;50.170;8.242;2023-03-31T10:30:32;2.83;;;0.97;;
8260;SDS011;64115;50.170;8.242;2023-03-31T10:33:08;1.80;;;1.00;;
8260;SDS011;64115;50.170;8.242;2023-03-31T10:35:41;2.30;;;1.07;;
8260;SDS011;64115;50.170;8.242;2023-03-31T10:38:10;2.03;;;0.97;;
8260;SDS011;64115;50.170;8.242;2023-03-31T10:40:40;2.37;;;1.13;;
8260;SDS011;64115;50.170;8.242;2023-03-31T10:43:17;3.80;;;0.83;;
8260;SDS011;64115;50.170;8.242;2023-03-31T10:45:46;1.77;;;0.90;;
8260;SDS011;64115;50.170;8.242;2023-03-31T10:48:16;1.97;;;0.83;;
8260;SDS011;64115;50.170;8.242;2023-03-31T10:50:48;1.43;;;0.77;;
8260;SDS011;64115;50.170;8.242;2023-03-31T10:53:16;3.60;;;1.37;;
8260;SDS011;64115;50.170;8.242;2023-03-31T10:55:46;3.47;;;1.40;;
8260;SDS011;64115;50.170;8.242;2023-03-31T10:58:30;5.70;;;1.50;;
8260;SDS011;64115;50.170;8.242;2023-03-31T11:01:07;4.33;;;1.40;;
8260;SDS011;64115;50.170;8.242;2023-03-31T11:03:50;4.93;;;1.60;;
8260;SDS011;64115;50.170;8.242;2023-03-31T11:06:28;6.40;;;1.90;;
8260;SDS011;64115;50.170;8.242;2023-03-31T11:09:15;4.77;;;1.70;;
8260;SDS011;64115;50.170;8.242;2023-03-31T11:11:57;2.97;;;1.37;;
8260;SDS011;64115;50.170;8.242;2023-03-31T11:14:34;3.30;;;1.60;;
8260;SDS011;64115;50.170;8.242;2023-03-31T11:17:16;5.57;;;1.50;;
8260;SDS011;64115;50.170;8.242;2023-03-31T11:19:52;3.93;;;1.70;;
8260;SDS011;64115;50.170;8.242;2023-03-31T11:22:33;3.73;;;1.60;;
8260;SDS011;64115;50.170;8.242;2023-03-31T11:25:09;6.70;;;2.13;;
8260;SDS011;64115;50.170;8.242;2023-03-31T11:27:56;10.10;;;2.23;;
8260;SDS011;64115;50.170;8.242;2023-03-31T11:30:44;5.80;;;1.60;;
8260;SDS011;64115;50.170;8.242;2023-03-31T11:33:18;5.80;;;1.80;;
8260;SDS011;64115;50.170;8.242;2023-03-31T11:36:04;5.20;;;1.80;;
8260;SDS011;64115;50.170;8.242;2023-03-31T11:38:46;7.27;;;2.00;;
8260;SDS011;64115;50.170;8.242;2023-03-31T11:41:31;4.77;;;1.60;;
8260;SDS011;64115;50.170;8.242;2023-03-31T11:44:02;6.20;;;1.80;;
8260;SDS011;64115;50.170;8.242;2023-03-31T11:46:34;5.03;;;1.90;;
8260;SDS011;64115;50.170;8.242;2023-03-31T11:49:07;6.10;;;2.00;;
8260;SDS011;64115;50.170;8.242;2023-03-31T11:51:42;5.50;;;1.40;;
8260;SDS011;64115;50.170;8.242;2023-03-31T11:54:15;4.57;;;1.70;;
8260;SDS011;64115;50.170;8.242;2023-03-31T11:56:49;5.10;;;1.50;;
8260;SDS011;64115;50.170;8.242;2023-03-31T11:59:17;5.07;;;1.37;;
8260;SDS011;64115;50.170;8.242;2023-03-31T12:01:50;5.33;;;1.27;;
8260;SDS011;64115;50.170;8.242;2023-03-31T12:04:26;3.77;;;1.40;;
8260;SDS011;64115;50.170;8.242;2023-03-31T12:07:02;5.53;;;1.57;;
8260;SDS011;64115;50.170;8.242;2023-03-31T12:09:36;3.67;;;1.50;;
8260;SDS011;64115;50.170;8.242;2023-03-31T12:12:11;4.67;;;1.60;;
8260;SDS011;64115;50.170;8.242;2023-03-31T12:14:42;3.63;;;1.50;;
8260;SDS011;64115;50.170;8.242;2023-03-31T12:17:16;4.53;;;1.20;;
8260;SDS011;64115;50.170;8.242;2023-03-31T12:19:47;3.87;;;1.37;;
8260;SDS011;64115;50.170;8.242;2023-03-31T12:22:17;5.27;;;1.63;;
8260;SDS011;64115;50.170;8.242;2023-03-31T12:24:50;3.57;;;1.50;;
8260;SDS011;64115;50.170;8.242;2023-03-31T12:27:17;5.63;;;1.47;;
8260;SDS011;64115;50.170;8.242;2023-03-31T12:29:52;6.70;;;1.70;;
8260;SDS011;64115;50.170;8.242;2023-03-31T12:32:25;6.10;;;1.90;;
8260;SDS011;64115;50.170;8.242;2023-03-31T12:34:56;5.70;;;1.70;;
8260;SDS011;64115;50.170;8.242;2023-03-31T12:40:40;4.70;;;1.80;;
8260;SDS011;64115;50.170;8.242;2023-03-31T12:43:23;4.30;;;1.73;;
8260;SDS011;64115;50.170;8.242;2023-03-31T12:46:17;4.60;;;1.53;;
8260;SDS011;64115;50.170;8.242;2023-03-31T12:49:01;3.87;;;1.63;;
8260;SDS011;64115;50.170;8.242;2023-03-31T12:54:34;5.37;;;1.53;;
8260;SDS011;64115;50.170;8.242;2023-03-31T12:57:24;3.93;;;1.43;;
8260;SDS011;64115;50.170;8.242;2023-03-31T13:06:01;3.00;;;1.50;;
8260;SDS011;64115;50.170;8.242;2023-03-31T13:11:19;3.90;;;1.30;;
8260;SDS011;64115;50.170;8.242;2023-03-31T13:13:57;5.67;;;2.17;;
8260;SDS011;64115;50.170;8.242;2023-03-31T13:16:26;4.93;;;1.33;;
8260;SDS011;64115;50.170;8.242;2023-03-31T13:18:54;4.13;;;1.60;;
8260;SDS011;64115;50.170;8.242;2023-03-31T13:21:23;4.57;;;1.50;;
8260;SDS011;64115;50.170;8.242;2023-03-31T13:23:51;8.83;;;1.83;;
8260;SDS011;64115;50.170;8.242;2023-03-31T13:26:34;4.37;;;1.20;;
8260;SDS011;64115;50.170;8.242;2023-03-31T13:29:10;3.10;;;1.40;;
8260;SDS011;64115;50.170;8.242;2023-03-31T13:32:14;5.33;;;1.50;;
8260;SDS011;64115;50.170;8.242;2023-03-31T13:34:48;5.00;;;1.67;;
8260;SDS011;64115;50.170;8.242;2023-03-31T13:40:36;3.53;;;1.30;;
8260;SDS011;64115;50.170;8.242;2023-03-31T13:46:44;2.53;;;1.20;;
8260;SDS011;64115;50.170;8.242;2023-03-31T13:52:30;4.57;;;1.50;;
8260;SDS011;64115;50.170;8.242;2023-03-31T13:55:10;5.10;;;1.80;;
8260;SDS011;64115;50.170;8.242;2023-03-31T13:57:56;3.93;;;1.37;;
8260;SDS011;64115;50.170;8.242;2023-03-31T14:00:46;2.40;;;1.23;;
8260;SDS011;64115;50.170;8.242;2023-03-31T14:03:34;3.57;;;1.70;;
8260;SDS011;64115;50.170;8.242;2023-03-31T14:06:16;3.10;;;1.10;;
8260;SDS011;64115;50.170;8.242;2023-03-31T14:08:49;2.77;;;1.17;;
8260;SDS011;64115;50.170;8.242;2023-03-31T14:11:24;3.20;;;1.27;;
8260;SDS011;64115;50.170;8.242;2023-03-31T14:14:03;5.03;;;1.40;;
8260;SDS011;64115;50.170;8.242;2023-03-31T14:16:33;5.37;;;1.27;;
8260;SDS011;64115;50.170;8.242;2023-03-31T14:22:17;1.80;;;1.10;;
8260;SDS011;64115;50.170;8.242;2023-03-31T14:24:50;1.90;;;1.00;;
8260;SDS011;64115;50.170;8.242;2023-03-31T14:27:29;5.33;;;1.33;;
8260;SDS011;64115;50.170;8.242;2023-03-31T14:30:11;4.00;;;1.40;;
8260;SDS011;64115;50.170;8.242;2023-03-31T14:32:48;5.27;;;1.03;;
8260;SDS011;64115;50.170;8.242;2023-03-31T14:35:27;2.17;;;1.23;;
8260;SDS011;64115;50.170;8.242;2023-03-31T14:38:03;3.50;;;1.23;;
8260;SDS011;64115;50.170;8.242;2023-03-31T14:40:35;3.47;;;1.10;;
8260;SDS011;64115;50.170;8.242;2023-03-31T14:43:17;3.50;;;1.17;;
8260;SDS011;64115;50.170;8.242;2023-03-31T14:45:46;1.80;;;1.00;;
8260;SDS011;64115;50.170;8.242;2023-03-31T14:48:17;7.50;;;1.37;;
8260;SDS011;64115;50.170;8.242;2023-03-31T14:50:45;5.43;;;1.43;;
8260;SDS011;64115;50.170;8.242;2023-03-31T14:53:13;2.80;;;1.03;;
8260;SDS011;64115;50.170;8.242;2023-03-31T14:55:41;3.70;;;0.97;;
8260;SDS011;64115;50.170;8.242;2023-03-31T14:58:11;2.83;;;1.10;;
8260;SDS011;64115;50.170;8.242;2023-03-31T15:00:47;2.33;;;1.00;;
8260;SDS011;64115;50.170;8.242;2023-03-31T15:03:14;2.83;;;1.20;;
8260;SDS011;64115;50.170;8.242;2023-03-31T15:05:41;3.77;;;1.20;;
8260;SDS011;64115;50.170;8.242;2023-03-31T15:08:11;2.70;;;1.03;;
8260;SDS011;64115;50.170;8.242;2023-03-31T15:10:42;4.97;;;1.20;;
8260;SDS011;64115;50.170;8.242;2023-03-31T15:13:15;3.87;;;1.10;;
8260;SDS011;64115;50.170;8.242;2023-03-31T15:15:47;1.90;;;0.50;;
8260;SDS011;64115;50.170;8.242;2023-03-31T15:18:14;6.43;;;1.10;;
8260;SDS011;64115;50.170;8.242;2023-03-31T15:20:43;2.10;;;1.00;;
8260;SDS011;64115;50.170;8.242;2023-03-31T15:23:20;1.93;;;0.77;;
8260;SDS011;64115;50.170;8.242;2023-03-31T15:25:52;0.73;;;0.60;;
8260;SDS011;64115;50.170;8.242;2023-03-31T15:28:22;2.63;;;0.90;;
8260;SDS011;64115;50.170;8.242;2023-03-31T15:30:53;2.37;;;0.97;;
8260;SDS011;64115;50.170;8.242;2023-03-31T15:33:21;1.73;;;0.80;;
8260;SDS011;64115;50.170;8.242;2023-03-31T15:35:58;1.73;;;0.53;;
8260;SDS011;64115;50.170;8.242;2023-03-31T15:38:26;1.63;;;0.90;;
8260;SDS011;64115;50.170;8.242;2023-03-31T15:40:56;4.70;;;1.10;;
8260;SDS011;64115;50.170;8.242;2023-03-31T15:43:28;3.70;;;1.00;;
8260;SDS011;64115;50.170;8.242;2023-03-31T15:45:58;3.67;;;0.77;;
8260;SDS011;64115;50.170;8.242;2023-03-31T15:48:28;2.90;;;1.13;;
8260;SDS011;64115;50.170;8.242;2023-03-31T15:50:58;4.23;;;1.90;;
8260;SDS011;64115;50.170;8.242;2023-03-31T15:53:28;3.23;;;1.43;;
8260;SDS011;64115;50.170;8.242;2023-03-31T15:55:57;2.90;;;1.40;;
8260;SDS011;64115;50.170;8.242;2023-03-31T16:01:23;3.53;;;1.20;;
8260;SDS011;64115;50.170;8.242;2023-03-31T16:03:57;2.83;;;1.00;;
8260;SDS011;64115;50.170;8.242;2023-03-31T16:06:28;3.37;;;1.30;;
8260;SDS011;64115;50.170;8.242;2023-03-31T16:09:01;9.97;;;1.70;;
8260;SDS011;64115;50.170;8.242;2023-03-31T16:11:33;4.00;;;1.40;;
8260;SDS011;64115;50.170;8.242;2023-03-31T16:14:05;4.80;;;1.07;;
8260;SDS011;64115;50.170;8.242;2023-03-31T16:16:37;4.67;;;1.33;;